ADDS TAF Data INFO
IDs: Format: Raw Decoded Include METARs

Data at: 1305 UTC 21 May 2018

KDHT 211253Z AUTO 21006KT 10SM CLR 12/11 A3013 RMK AO2 SLP165 T01170106

KDHT 211128Z 2112/2212 19008KT P6SM SKC
  FM211900 19014G23KT P6SM SCT250
  FM220300 18010KT P6SM SCT100 BKN250
  PROB30 2203/2207 TS BKN050CB
  FM220900 18008KT P6SM BKN250